Time;durP1;ratioP1;P1;durP2;ratioP2;P2;SDS_P1;SDS_P2;PMS_P1;PMS_P2;Temp;Humidity;BMP_temperature;BMP_pressure;BME280_temperature;BME280_humidity;BME280_pressure;Samples;Min_cycle;Max_cycle;Signal;HPM_P1;HPM_P2
2023/05/01 00:02:02;;;;;;;12.07;9.30;;;13.00;99.90;;;;;;4969078;28;20227;-62
2023/05/01 00:04:33;;;;;;;10.63;9.63;;;13.00;99.90;;;;;;4973013;28;20227;-61
2023/05/01 00:07:01;;;;;;;9.17;8.47;;;12.90;99.90;;;;;;4975286;28;20287;-61
2023/05/01 00:09:31;;;;;;;10.73;9.77;;;12.90;99.90;;;;;;4980845;28;20242;-62
2023/05/01 00:11:59;;;;;;;10.00;9.10;;;12.90;99.90;;;;;;4975128;28;20571;-62
2023/05/01 00:14:29;;;;;;;9.50;8.60;;;12.90;99.90;;;;;;4976668;28;20898;-61
2023/05/01 00:16:57;;;;;;;10.10;9.13;;;12.90;99.90;;;;;;4966344;28;20231;-62
2023/05/01 00:19:26;;;;;;;9.90;9.00;;;12.90;99.90;;;;;;4972596;28;20198;-62
2023/05/01 00:21:55;;;;;;;10.23;8.93;;;12.90;99.90;;;;;;4975549;28;20223;-62
2023/05/01 00:24:23;;;;;;;12.83;8.60;;;12.90;99.90;;;;;;4970856;28;20290;-62
2023/05/01 00:26:51;;;;;;;10.00;9.10;;;12.90;99.90;;;;;;4963019;28;20259;-62
2023/05/01 00:29:20;;;;;;;9.70;8.43;;;12.80;99.90;;;;;;4981070;28;20619;-61
2023/05/01 00:31:48;;;;;;;10.03;9.03;;;12.80;99.90;;;;;;4970164;28;20228;-62
2023/05/01 00:34:16;;;;;;;9.03;8.23;;;12.80;99.90;;;;;;4970101;28;20207;-62
2023/05/01 00:36:46;;;;;;;9.50;8.53;;;12.80;99.90;;;;;;4966937;28;20308;-62
2023/05/01 00:39:17;;;;;;;9.80;9.00;;;12.70;99.90;;;;;;4973324;28;20698;-61
2023/05/01 00:41:45;;;;;;;8.90;8.10;;;12.70;99.90;;;;;;4972825;28;20224;-62
2023/05/01 00:44:13;;;;;;;8.87;8.00;;;12.70;99.90;;;;;;4975211;28;20222;-61
2023/05/01 00:46:42;;;;;;;8.30;7.70;;;12.70;99.90;;;;;;4968307;28;20270;-61
2023/05/01 00:49:10;;;;;;;8.43;7.10;;;12.70;99.90;;;;;;4975192;28;20219;-61
2023/05/01 00:51:40;;;;;;;8.83;8.00;;;12.70;99.90;;;;;;4979067;28;20218;-62
2023/05/01 00:54:10;;;;;;;8.60;7.90;;;12.70;99.90;;;;;;4954413;28;20226;-62
2023/05/01 00:56:38;;;;;;;8.87;7.77;;;12.70;99.90;;;;;;4977760;28;20310;-62
2023/05/01 00:59:06;;;;;;;9.63;8.40;;;12.60;99.90;;;;;;4972331;28;20223;-61
2023/05/01 01:04:33;;;;;;;8.40;7.53;;;12.50;99.90;;;;;;5793338;23;20238;-94
2023/05/01 01:10:54;;;;;;;8.77;7.70;;;12.60;99.90;;;;;;5000890;28;20317;-95
2023/05/01 01:17:09;;;;;;;9.37;8.47;;;12.50;99.90;;;;;;5000506;28;20222;-94
2023/05/01 01:20:11;;;;;;;9.13;8.33;;;12.50;99.90;;;;;;4999468;28;20632;-95
2023/05/01 01:26:33;;;;;;;12.93;7.93;;;12.50;99.90;;;;;;4999950;28;20560;-94
2023/05/01 01:29:41;;;;;;;8.90;8.20;;;12.40;99.90;;;;;;5000068;28;20217;-94
2023/05/01 01:36:01;;;;;;;9.03;8.23;;;12.40;99.90;;;;;;4999640;28;20222;-94
2023/05/01 01:38:36;;;;;;;9.27;8.37;;;12.40;99.90;;;;;;4999870;28;20226;-94
2023/05/01 01:41:09;;;;;;;8.57;7.87;;;12.40;99.90;;;;;;4999714;28;20571;-95
2023/05/01 01:43:41;;;;;;;8.47;7.63;;;12.30;99.90;;;;;;4999682;28;20567;-94
2023/05/01 01:46:11;;;;;;;8.00;7.40;;;12.30;99.90;;;;;;5000964;28;20200;-94
2023/05/01 01:48:43;;;;;;;8.60;7.90;;;12.30;99.90;;;;;;5000325;28;20680;-95
2023/05/01 01:54:58;;;;;;;8.60;7.87;;;12.30;99.90;;;;;;5000173;28;20194;-95
2023/05/01 01:57:28;;;;;;;9.30;8.50;;;12.20;99.90;;;;;;4999359;28;20257;-95
2023/05/01 01:59:57;;;;;;;8.63;7.93;;;12.20;99.90;;;;;;4999684;28;20234;-95
2023/05/01 02:02:29;;;;;;;9.27;8.57;;;12.20;99.90;;;;;;5005739;28;20363;-95
2023/05/01 02:08:40;;;;;;;9.40;8.60;;;12.20;99.90;;;;;;5018298;28;20614;-95
2023/05/01 02:14:56;;;;;;;8.60;7.80;;;12.10;23.20;;;;;;5018676;28;20687;-94
2023/05/01 02:21:06;;;;;;;9.23;8.43;;;12.00;34.80;;;;;;5019417;28;20237;-95
2023/05/01 02:27:20;;;;;;;9.57;8.57;;;11.90;29.80;;;;;;5018994;28;20224;-94
2023/05/01 02:33:34;;;;;;;9.70;8.70;;;11.90;24.70;;;;;;5018902;28;20300;-93
2023/05/01 02:39:43;;;;;;;9.47;8.57;;;11.80;45.10;;;;;;5018899;28;20217;-94
2023/05/01 02:42:15;;;;;;;8.90;8.10;;;11.80;45.40;;;;;;5018501;28;20225;-94
2023/05/01 02:44:50;;;;;;;9.77;8.77;;;11.80;47.50;;;;;;5018625;28;20315;-94
2023/05/01 02:47:22;;;;;;;9.23;8.50;;;11.80;46.80;;;;;;5018189;28;20224;-94
2023/05/01 02:49:54;;;;;;;9.80;9.10;;;11.70;46.50;;;;;;5018012;28;20225;-94
2023/05/01 02:52:23;;;;;;;10.43;9.33;;;11.70;63.40;;;;;;5035069;28;20283;-94
2023/05/01 02:54:52;;;;;;;10.20;9.03;;;11.70;59.50;;;;;;5018250;28;20227;-95
2023/05/01 02:57:21;;;;;;;10.37;9.27;;;11.60;64.60;;;;;;5018686;28;20229;-95
2023/05/01 02:59:49;;;;;;;9.40;8.67;;;11.70;65.00;;;;;;5018737;28;20256;-95
2023/05/01 03:02:18;;;;;;;10.10;9.10;;;11.60;62.30;;;;;;5017824;28;20293;-95
2023/05/01 03:04:47;;;;;;;9.67;8.77;;;11.60;64.70;;;;;;5018076;28;20193;-94
2023/05/01 03:07:17;;;;;;;9.70;8.90;;;11.60;72.20;;;;;;5018213;28;20194;-95
2023/05/01 03:09:46;;;;;;;10.77;9.60;;;11.50;75.60;;;;;;5018081;28;20229;-94
2023/05/01 03:12:14;;;;;;;10.47;9.57;;;11.60;78.60;;;;;;5017170;28;20229;-94
2023/05/01 03:14:43;;;;;;;14.80;9.43;;;11.50;77.70;;;;;;5018029;28;20233;-94
2023/05/01 03:17:12;;;;;;;10.17;9.30;;;11.50;82.10;;;;;;5017992;28;20249;-94
2023/05/01 03:19:41;;;;;;;10.60;9.70;;;11.50;75.10;;;;;;5017532;28;20641;-94
2023/05/01 03:22:10;;;;;;;10.20;9.30;;;11.50;76.40;;;;;;5018559;28;20551;-95
2023/05/01 03:24:40;;;;;;;11.10;10.10;;;11.40;76.20;;;;;;5018162;28;20608;-94
2023/05/01 03:27:09;;;;;;;12.97;9.47;;;11.40;77.40;;;;;;5018579;28;20220;-95
2023/05/01 03:33:19;;;;;;;12.20;9.90;;;11.30;76.20;;;;;;5020104;28;20220;-95
2023/05/01 03:35:48;;;;;;;11.20;10.10;;;11.30;68.20;;;;;;5020250;28;20236;-95
2023/05/01 03:38:16;;;;;;;10.50;9.60;;;11.30;67.00;;;;;;5037505;28;20714;-94
2023/05/01 03:40:46;;;;;;;11.20;10.23;;;11.30;62.30;;;;;;5017820;28;20189;-94
2023/05/01 03:43:15;;;;;;;11.03;9.93;;;11.30;83.60;;;;;;5018002;28;20624;-95
2023/05/01 03:45:44;;;;;;;13.70;10.23;;;11.30;99.90;;;;;;5018465;28;20225;-94
2023/05/01 03:48:13;;;;;;;11.37;10.27;;;11.30;99.90;;;;;;5018174;28;20541;-95
2023/05/01 03:50:42;;;;;;;10.47;9.37;;;11.20;99.90;;;;;;5034493;28;20221;-95
2023/05/01 03:53:11;;;;;;;10.17;9.27;;;11.20;99.90;;;;;;5017277;28;20229;-94
2023/05/01 03:55:41;;;;;;;10.37;9.37;;;11.20;99.90;;;;;;5017562;28;20197;-94
2023/05/01 03:58:11;;;;;;;10.07;9.17;;;11.20;99.90;;;;;;5017222;28;20205;-95
2023/05/01 04:04:21;;;;;;;10.03;9.03;;;11.10;99.90;;;;;;5017612;28;20209;-95
2023/05/01 04:07:27;;;;;;;10.07;9.07;;;11.10;99.90;;;;;;5017721;28;20221;-95
2023/05/01 04:13:38;;;;;;;10.70;8.90;;;11.00;99.90;;;;;;5017920;28;20617;-94
2023/05/01 04:19:49;;;;;;;11.53;9.53;;;11.00;99.90;;;;;;5021147;28;20590;-94
2023/05/01 04:22:18;;;;;;;11.00;10.00;;;10.90;99.90;;;;;;5021632;28;20189;-95
2023/05/01 04:24:47;;;;;;;10.40;9.50;;;10.90;99.90;;;;;;5020622;28;20245;-95
2023/05/01 04:27:16;;;;;;;10.67;9.73;;;10.90;99.90;;;;;;5020459;28;20241;-94
2023/05/01 04:29:46;;;;;;;10.77;9.87;;;10.80;99.90;;;;;;5020871;28;20703;-95
2023/05/01 04:32:17;;;;;;;12.10;10.67;;;10.80;99.90;;;;;;5022434;28;20759;-95
2023/05/01 04:34:46;;;;;;;14.40;11.63;;;10.80;99.90;;;;;;5021598;28;20221;-95
2023/05/01 04:37:16;;;;;;;12.57;11.37;;;10.80;99.90;;;;;;5021577;28;20189;-94
2023/05/01 04:39:45;;;;;;;13.73;12.47;;;10.80;99.90;;;;;;5020839;28;20316;-95
2023/05/01 04:42:13;;;;;;;13.40;12.10;;;10.80;99.90;;;;;;5020708;28;20229;-94
2023/05/01 04:44:42;;;;;;;16.03;12.47;;;10.90;99.90;;;;;;5036975;28;20233;-95
2023/05/01 04:47:11;;;;;;;15.50;11.93;;;10.90;99.90;;;;;;5020328;28;20742;-95
2023/05/01 04:49:40;;;;;;;13.40;12.00;;;10.90;99.90;;;;;;5020588;28;20204;-94
2023/05/01 04:52:09;;;;;;;12.70;11.50;;;10.90;99.90;;;;;;5020793;28;20213;-94
2023/05/01 04:54:37;;;;;;;17.13;12.77;;;11.00;99.90;;;;;;5020788;28;20675;-96
2023/05/01 04:57:06;;;;;;;13.57;12.17;;;11.00;99.90;;;;;;5020829;28;20292;-94
2023/05/01 04:59:34;;;;;;;13.97;12.57;;;11.10;99.90;;;;;;5037092;28;20229;-94
2023/05/01 05:02:03;;;;;;;16.30;12.50;;;11.10;99.90;;;;;;5020231;28;20237;-94
2023/05/01 05:04:33;;;;;;;15.57;13.90;;;11.20;99.90;;;;;;5020082;28;20194;-94
2023/05/01 05:07:02;;;;;;;15.53;13.10;;;11.20;99.90;;;;;;5020888;28;20221;-95
2023/05/01 05:09:30;;;;;;;15.20;13.60;;;11.30;99.90;;;;;;5036604;28;20291;-95
2023/05/01 05:11:59;;;;;;;15.40;13.90;;;11.30;99.90;;;;;;5020073;28;20616;-94
2023/05/01 05:14:28;;;;;;;14.80;12.70;;;11.30;99.90;;;;;;5020120;28;20308;-94
2023/05/01 05:16:56;;;;;;;15.67;13.67;;;11.40;99.90;;;;;;5019709;28;20209;-95
2023/05/01 05:19:26;;;;;;;13.70;12.40;;;11.40;99.90;;;;;;5037246;28;20239;-95
2023/05/01 05:21:56;;;;;;;15.10;13.60;;;11.40;99.90;;;;;;5019781;28;20244;-96
2023/05/01 05:24:24;;;;;;;14.20;12.80;;;11.50;99.90;;;;;;5036695;28;20236;-94
2023/05/01 05:26:53;;;;;;;14.57;13.03;;;11.50;99.90;;;;;;5019151;28;20645;-94
2023/05/01 05:29:22;;;;;;;16.10;13.17;;;11.50;99.90;;;;;;5019748;28;20308;-95
2023/05/01 05:31:50;;;;;;;14.87;13.27;;;11.50;99.90;;;;;;5019536;28;20316;-94
2023/05/01 05:34:19;;;;;;;18.60;14.10;;;11.50;99.90;;;;;;5020175;28;20194;-95
2023/05/01 05:36:47;;;;;;;15.60;13.07;;;11.50;99.90;;;;;;5019675;28;20267;-94
2023/05/01 05:39:19;;;;;;;17.13;13.20;;;11.50;99.90;;;;;;5019892;28;20244;-95
2023/05/01 05:41:48;;;;;;;13.80;12.40;;;11.60;99.90;;;;;;5020285;28;20304;-95
2023/05/01 05:44:16;;;;;;;14.63;12.90;;;11.60;99.90;;;;;;5019223;28;20225;-95
2023/05/01 05:46:47;;;;;;;14.13;12.73;;;11.70;99.90;;;;;;5018939;28;20189;-95
2023/05/01 05:49:15;;;;;;;13.83;12.60;;;11.70;99.90;;;;;;5019787;28;20689;-95
2023/05/01 05:51:45;;;;;;;13.80;11.87;;;11.80;99.90;;;;;;5019306;28;20221;-94
2023/05/01 05:54:13;;;;;;;15.07;13.53;;;11.90;99.90;;;;;;5018978;28;20221;-95
2023/05/01 05:56:43;;;;;;;18.27;15.13;;;12.00;99.90;;;;;;5019618;28;20233;-94
2023/05/01 05:59:12;;;;;;;19.30;15.83;;;12.10;99.90;;;;;;5036224;28;20303;-95
2023/05/01 06:01:44;;;;;;;20.33;16.77;;;12.20;99.90;;;;;;5035566;28;20282;-96
2023/05/01 06:04:14;;;;;;;24.43;18.77;;;12.40;99.90;;;;;;5019949;28;20197;-95
2023/05/01 06:06:42;;;;;;;27.97;20.70;;;12.50;99.90;;;;;;5036397;28;20253;-94
2023/05/01 06:09:11;;;;;;;30.50;21.13;;;12.50;99.90;;;;;;5035507;28;20263;-95
2023/05/01 06:11:40;;;;;;;32.13;23.00;;;12.60;99.90;;;;;;5019524;28;20640;-95
2023/05/01 06:14:10;;;;;;;30.37;22.83;;;12.70;99.90;;;;;;5019342;28;20244;-95
2023/05/01 06:16:39;;;;;;;37.73;24.47;;;12.80;99.90;;;;;;5035660;28;20198;-94
2023/05/01 06:19:09;;;;;;;33.40;24.03;;;12.90;99.90;;;;;;5019841;28;20180;-95
2023/05/01 06:21:37;;;;;;;34.93;24.90;;;13.00;99.90;;;;;;5019141;28;20226;-95
2023/05/01 06:27:49;;;;;;;37.37;25.90;;;13.20;99.90;;;;;;5019148;28;20242;-94
2023/05/01 06:30:55;;;;;;;38.93;26.47;;;13.40;99.90;;;;;;5019917;28;20229;-95
2023/05/01 06:33:25;;;;;;;36.63;25.40;;;13.60;99.90;;;;;;5036400;28;20312;-95
2023/05/01 06:35:55;;;;;;;38.93;26.00;;;13.70;99.90;;;;;;5020118;28;20221;-94
2023/05/01 06:38:23;;;;;;;39.07;25.83;;;14.00;99.90;;;;;;5019216;28;20332;-94
2023/05/01 06:40:55;;;;;;;40.97;26.60;;;14.20;99.90;;;;;;5019392;28;20229;-94
2023/05/01 06:43:26;;;;;;;44.60;29.43;;;14.50;99.90;;;;;;5038279;28;20194;-93
2023/05/01 06:46:52;;;;;;;40.90;27.17;;;14.70;99.90;;;;;;5025444;28;20226;-93
2023/05/01 06:50:00;;;;;;;43.73;27.40;;;14.80;99.90;;;;;;5039003;28;20229;-92
2023/05/01 06:52:58;;;;;;;42.80;28.50;;;14.70;99.90;;;;;;5036622;28;20307;-93
2023/05/01 06:55:29;;;;;;;43.63;28.40;;;14.70;99.90;;;;;;5018911;28;20289;-93
2023/05/01 06:58:00;;;;;;;46.33;28.90;;;14.70;99.90;;;;;;5019036;28;20206;-93
2023/05/01 07:00:40;;;;;;;44.70;28.70;;;14.60;99.90;;;;;;5035378;28;20726;-93
2023/05/01 07:03:08;;;;;;;45.00;29.17;;;14.50;99.90;;;;;;5018293;28;20221;-93
2023/05/01 07:05:39;;;;;;;49.80;29.87;;;14.40;99.90;;;;;;5018092;28;20226;-94
2023/05/01 07:08:08;;;;;;;56.30;32.00;;;14.30;99.90;;;;;;5017480;28;20225;-94
2023/05/01 07:10:36;;;;;;;46.63;29.40;;;14.20;99.90;;;;;;5034496;28;20213;-94
2023/05/01 07:13:09;;;;;;;51.10;30.20;;;14.20;99.90;;;;;;5019137;28;20210;-93
2023/05/01 07:15:38;;;;;;;54.20;31.63;;;14.30;99.90;;;;;;5018041;28;20699;-94
2023/05/01 07:18:06;;;;;;;50.03;31.07;;;14.30;99.90;;;;;;5018013;28;20230;-93
2023/05/01 07:20:36;;;;;;;50.37;31.17;;;14.50;99.90;;;;;;5018279;28;20314;-92
2023/05/01 07:23:05;;;;;;;49.57;32.10;;;14.60;99.90;;;;;;5018343;28;20252;-93
2023/05/01 07:25:36;;;;;;;52.20;30.67;;;14.70;99.90;;;;;;5017885;28;20237;-92
2023/05/01 07:28:06;;;;;;;53.90;32.70;;;14.90;99.90;;;;;;5018582;28;20248;-94
2023/05/01 07:30:36;;;;;;;48.73;29.67;;;14.90;99.90;;;;;;5018526;28;20273;-91
2023/05/01 07:33:08;;;;;;;52.33;32.03;;;14.90;99.90;;;;;;5018530;28;20221;-94
2023/05/01 07:35:36;;;;;;;57.40;32.47;;;15.00;99.90;;;;;;5018462;28;20229;-93
2023/05/01 07:38:06;;;;;;;61.93;32.73;;;15.00;99.90;;;;;;5018156;28;20233;-93
2023/05/01 07:40:35;;;;;;;50.87;30.40;;;15.00;99.90;;;;;;5017958;28;20292;-92
2023/05/01 07:43:04;;;;;;;48.57;30.63;;;15.20;99.90;;;;;;5018782;28;20231;-93
2023/05/01 07:45:32;;;;;;;51.53;30.60;;;15.40;99.90;;;;;;5036349;28;20234;-92
2023/05/01 07:48:01;;;;;;;51.63;31.10;;;15.50;99.90;;;;;;5036798;28;20222;-93
2023/05/01 07:50:30;;;;;;;49.80;30.77;;;15.60;99.90;;;;;;5020646;28;20230;-93
2023/05/01 07:52:58;;;;;;;46.97;29.37;;;15.70;99.90;;;;;;5018444;28;20225;-92
2023/05/01 07:55:28;;;;;;;49.07;30.20;;;15.80;99.90;;;;;;5018640;28;20200;-93
2023/05/01 07:58:34;;;;;;;45.70;28.80;;;16.00;99.90;;;;;;5018475;28;20243;-94
2023/05/01 08:04:47;;;;;;;42.57;26.50;;;16.60;99.90;;;;;;5017741;28;20575;-92
2023/05/01 08:07:15;;;;;;;43.97;27.47;;;16.70;99.90;;;;;;5021843;28;20189;-93
2023/05/01 08:09:50;;;;;;;40.00;26.17;;;16.60;99.90;;;;;;5022618;28;20229;-91
2023/05/01 08:16:04;;;;;;;42.73;27.23;;;16.50;99.90;;;;;;5021782;28;20223;-93
2023/05/01 08:25:27;;;;;;;40.80;24.60;;;16.40;99.90;;;;;;5593200;23;20234;-91
2023/05/01 08:27:55;;;;;;;42.97;26.60;;;16.50;99.90;;;;;;5001475;28;20228;-91
2023/05/01 08:30:25;;;;;;;37.27;24.20;;;16.50;99.90;;;;;;5002340;28;20225;-93
2023/05/01 08:32:55;;;;;;;36.73;23.17;;;16.50;99.90;;;;;;5021235;28;20260;-92
2023/05/01 08:35:30;;;;;;;35.10;22.77;;;16.50;99.90;;;;;;5020962;28;20641;-93
2023/05/01 08:38:07;;;;;;;35.33;22.50;;;16.50;99.90;;;;;;5021529;28;20559;-92
2023/05/01 08:44:17;;;;;;;40.50;23.83;;;16.60;99.90;;;;;;5021064;28;20236;-92
2023/05/01 08:46:48;;;;;;;37.10;22.97;;;16.70;99.90;;;;;;5020928;28;20664;-91
2023/05/01 08:49:19;;;;;;;31.87;22.97;;;16.70;99.90;;;;;;5021772;28;20181;-92
2023/05/01 08:51:51;;;;;;;33.70;22.53;;;16.50;99.90;;;;;;5021534;28;20311;-93
2023/05/01 08:54:22;;;;;;;33.13;22.47;;;16.40;99.90;;;;;;5021718;28;20233;-92
2023/05/01 08:56:53;;;;;;;36.50;23.23;;;16.40;99.90;;;;;;5020623;28;20732;-93
2023/05/01 08:59:30;;;;;;;36.77;23.23;;;16.40;99.90;;;;;;5020923;28;20277;-92
2023/05/01 09:02:31;;;;;;;35.43;23.47;;;16.40;99.90;;;;;;5039275;28;20293;-93
2023/05/01 09:05:42;;;;;;;30.63;21.30;;;16.40;99.90;;;;;;5038904;28;20181;-93
2023/05/01 09:08:14;;;;;;;26.93;20.03;;;16.60;99.90;;;;;;5037398;28;20231;-92
2023/05/01 09:14:24;;;;;;;32.73;20.30;;;16.50;99.90;;;;;;5021096;28;20221;-94
2023/05/01 09:16:55;;;;;;;27.10;19.13;;;16.60;99.90;;;;;;5020613;28;20227;-93
2023/05/01 09:19:25;;;;;;;27.60;18.97;;;16.40;99.90;;;;;;5037215;28;20748;-94
2023/05/01 09:21:56;;;;;;;28.10;18.83;;;16.40;99.90;;;;;;5020313;28;20226;-91
2023/05/01 09:24:25;;;;;;;26.90;18.90;;;16.40;99.90;;;;;;5020223;28;20174;-93
2023/05/01 09:26:56;;;;;;;25.90;19.57;;;16.50;99.90;;;;;;5020403;28;20267;-92
2023/05/01 09:33:13;;;;;;;29.90;19.40;;;16.80;99.90;;;;;;5019785;28;20228;-94
2023/05/01 09:39:24;;;;;;;23.93;18.23;;;17.20;99.90;;;;;;5019910;28;20225;-93
2023/05/01 09:41:56;;;;;;;28.53;18.67;;;17.30;99.90;;;;;;5036660;28;20260;-93
2023/05/01 09:44:25;;;;;;;28.47;19.47;;;17.50;99.90;;;;;;5019973;28;20221;-93
2023/05/01 09:46:54;;;;;;;22.73;17.57;;;17.50;99.90;;;;;;5019758;28;20691;-93
2023/05/01 09:49:45;;;;;;;25.63;17.73;;;17.40;99.90;;;;;;5019824;28;20795;-93
2023/05/01 09:52:14;;;;;;;25.60;17.50;;;17.60;99.90;;;;;;5020563;28;20722;-92
2023/05/01 09:54:44;;;;;;;25.27;16.30;;;17.80;99.90;;;;;;5019956;28;20221;-94
2023/05/01 09:57:13;;;;;;;18.80;14.87;;;18.00;99.90;;;;;;5019480;28;20181;-93
2023/05/01 09:59:41;;;;;;;24.03;16.10;;;18.40;99.90;;;;;;5019899;28;20655;-95
2023/05/01 10:02:28;;;;;;;20.60;13.63;;;18.50;99.90;;;;;;5019639;28;20256;-94
2023/05/01 10:04:59;;;;;;;16.47;12.47;;;18.70;99.90;;;;;;5019111;28;20232;-93
2023/05/01 10:07:30;;;;;;;17.23;12.20;;;19.10;99.90;;;;;;5019934;28;20248;-93
2023/05/01 10:10:15;;;;;;;14.20;12.17;;;19.50;99.90;;;;;;5036024;28;20256;-93
2023/05/01 10:12:43;;;;;;;13.77;11.60;;;19.70;99.90;;;;;;5035072;28;20244;-94
2023/05/01 10:15:15;;;;;;;13.67;10.80;;;19.80;99.90;;;;;;5019094;28;20210;-93
2023/05/01 10:17:54;;;;;;;14.90;12.13;;;19.80;99.90;;;;;;5019609;28;20189;-94
2023/05/01 10:20:49;;;;;;;13.20;10.27;;;19.70;99.90;;;;;;4969832;28;20231;-93
2023/05/01 10:23:18;;;;;;;14.83;11.13;;;19.80;99.90;;;;;;4946636;28;20246;-62
2023/05/01 10:25:51;;;;;;;12.60;10.53;;;19.80;99.90;;;;;;4957835;28;20657;-62
2023/05/01 10:28:20;;;;;;;14.93;10.63;;;19.80;99.90;;;;;;4963882;28;20227;-62
2023/05/01 10:30:50;;;;;;;12.43;9.37;;;19.90;99.90;;;;;;4965656;28;20243;-63
2023/05/01 10:33:18;;;;;;;11.13;9.27;;;20.10;99.90;;;;;;4958544;28;20208;-62
2023/05/01 10:35:54;;;;;;;10.57;8.67;;;20.10;99.90;;;;;;4959449;28;20540;-63
2023/05/01 10:38:26;;;;;;;10.93;8.70;;;20.10;99.90;;;;;;4961559;28;20224;-63
2023/05/01 10:40:56;;;;;;;11.03;9.03;;;20.00;99.90;;;;;;4955979;28;20236;-63
2023/05/01 10:43:27;;;;;;;11.53;10.00;;;20.00;99.90;;;;;;4955312;28;20218;-62
2023/05/01 10:46:28;;;;;;;13.37;10.87;;;19.80;99.90;;;;;;4957478;28;20239;-63
2023/05/01 10:48:58;;;;;;;13.67;10.30;;;19.90;99.90;;;;;;4957284;28;20231;-62
2023/05/01 10:51:27;;;;;;;13.73;10.40;;;19.70;99.90;;;;;;4960965;28;20515;-62
2023/05/01 10:54:24;;;;;;;14.00;11.10;;;19.60;99.90;;;;;;4962345;28;20208;-62
2023/05/01 10:56:55;;;;;;;15.33;11.80;;;19.50;99.90;;;;;;4959097;28;20223;-62
2023/05/01 10:59:23;;;;;;;14.80;12.00;;;19.30;99.90;;;;;;4962250;28;20235;-62
2023/05/01 11:01:53;;;;;;;17.63;12.83;;;19.20;99.90;;;;;;4960251;28;20226;-62
2023/05/01 11:04:52;;;;;;;17.60;12.23;;;19.10;99.90;;;;;;4940577;28;20566;-62
2023/05/01 11:07:22;;;;;;;14.77;12.00;;;18.90;99.90;;;;;;4959696;28;20220;-62
2023/05/01 11:09:54;;;;;;;20.80;12.93;;;18.80;99.90;;;;;;4962845;28;20254;-62
2023/05/01 11:12:49;;;;;;;16.53;12.20;;;18.70;99.90;;;;;;4958742;28;20207;-62
2023/05/01 11:15:32;;;;;;;21.27;12.93;;;18.70;99.90;;;;;;4958792;28;20215;-62
2023/05/01 11:18:02;;;;;;;17.47;13.10;;;18.80;99.90;;;;;;4962866;28;20199;-62
2023/05/01 11:20:48;;;;;;;16.60;12.80;;;19.00;99.90;;;;;;4956876;28;20214;-62
2023/05/01 11:23:18;;;;;;;17.73;13.13;;;19.10;99.90;;;;;;4962331;28;20227;-63
2023/05/01 11:25:51;;;;;;;15.00;12.83;;;19.20;99.90;;;;;;4948356;28;20227;-62
2023/05/01 11:28:21;;;;;;;18.43;12.97;;;19.30;99.90;;;;;;4967778;28;20227;-63
2023/05/01 11:30:50;;;;;;;17.83;12.60;;;19.50;99.90;;;;;;4966900;28;20224;-62
2023/05/01 11:33:27;;;;;;;16.67;13.23;;;19.50;99.90;;;;;;4967166;28;20211;-62
2023/05/01 11:36:03;;;;;;;17.83;13.63;;;19.90;99.90;;;;;;4969404;28;20203;-62
2023/05/01 11:38:32;;;;;;;17.07;12.77;;;20.80;99.90;;;;;;4969387;28;20223;-63
2023/05/01 11:41:02;;;;;;;15.87;12.20;;;21.50;99.90;;;;;;4973678;28;20230;-63
2023/05/01 11:43:32;;;;;;;16.67;12.30;;;21.70;99.90;;;;;;4972224;28;20229;-63
2023/05/01 11:46:03;;;;;;;15.53;11.63;;;21.90;99.90;;;;;;4958589;28;20221;-62
2023/05/01 11:48:34;;;;;;;19.90;12.90;;;21.50;99.90;;;;;;4970996;28;20223;-62
2023/05/01 11:51:12;;;;;;;14.53;12.07;;;21.80;99.90;;;;;;4972358;28;20711;-63
2023/05/01 11:53:40;;;;;;;16.80;12.60;;;21.80;99.90;;;;;;4975463;28;20225;-63
2023/05/01 11:56:19;;;;;;;15.40;12.27;;;21.90;99.90;;;;;;4975845;28;20576;-62
2023/05/01 11:58:57;;;;;;;14.57;12.07;;;22.20;99.90;;;;;;4954520;28;20304;-63
2023/05/01 12:01:35;;;;;;;18.77;12.57;;;22.00;99.90;;;;;;4970618;28;20225;-63
2023/05/01 12:04:04;;;;;;;17.10;13.70;;;21.70;99.90;;;;;;4965838;28;20236;-63
2023/05/01 12:06:39;;;;;;;17.97;13.30;;;20.90;99.90;;;;;;4968054;28;20682;-61
2023/05/01 12:09:08;;;;;;;17.53;13.10;;;20.40;99.90;;;;;;4967306;28;20196;-62
2023/05/01 12:11:37;;;;;;;16.53;13.40;;;19.90;99.90;;;;;;4972903;28;20219;-64
2023/05/01 12:14:07;;;;;;;17.10;13.50;;;19.30;99.90;;;;;;4969391;28;20239;-63
2023/05/01 12:16:36;;;;;;;23.47;13.77;;;19.10;99.90;;;;;;4971637;28;20317;-63
2023/05/01 12:19:05;;;;;;;19.30;13.70;;;19.00;99.90;;;;;;4968412;28;20290;-63
2023/05/01 12:21:34;;;;;;;19.83;14.47;;;19.00;99.90;;;;;;4971092;28;20262;-63
2023/05/01 12:24:08;;;;;;;20.53;15.33;;;19.00;99.90;;;;;;4974143;28;20199;-63
2023/05/01 12:26:37;;;;;;;19.00;14.23;;;18.90;99.90;;;;;;4972390;28;20230;-63
2023/05/01 12:29:07;;;;;;;20.77;14.50;;;18.70;99.90;;;;;;4968252;28;20282;-63
2023/05/01 12:31:37;;;;;;;23.23;15.53;;;18.80;99.90;;;;;;4971411;28;20219;-63
2023/05/01 12:34:06;;;;;;;22.43;15.93;;;18.90;99.90;;;;;;4970076;28;20223;-63
2023/05/01 12:36:36;;;;;;;24.53;15.37;;;18.90;99.90;;;;;;4971590;28;20235;-63
2023/05/01 12:39:06;;;;;;;26.77;15.63;;;18.90;99.90;;;;;;4969946;28;20207;-64
2023/05/01 12:41:41;;;;;;;20.33;15.00;;;18.90;99.90;;;;;;4963788;28;20691;-63
2023/05/01 12:44:22;;;;;;;21.70;15.63;;;18.90;99.90;;;;;;4970642;28;20266;-63
2023/05/01 12:46:55;;;;;;;20.63;15.73;;;19.40;99.90;;;;;;4969939;28;20223;-63
2023/05/01 12:49:24;;;;;;;22.00;15.53;;;19.60;99.90;;;;;;4972134;28;20678;-63
2023/05/01 12:51:53;;;;;;;23.80;16.27;;;19.50;99.90;;;;;;4972894;28;20577;-60
2023/05/01 12:54:23;;;;;;;23.20;15.80;;;19.30;99.90;;;;;;4957190;28;20187;-60
2023/05/01 12:56:53;;;;;;;23.20;16.90;;;19.00;99.90;;;;;;4982929;28;20269;-60
2023/05/01 12:59:25;;;;;;;23.53;16.33;;;18.80;99.90;;;;;;4958257;28;20298;-61
2023/05/01 13:02:00;;;;;;;22.97;16.83;;;18.70;99.90;;;;;;4970505;28;20219;-60
2023/05/01 13:04:29;;;;;;;24.93;16.60;;;18.60;99.90;;;;;;4970854;28;20211;-60
2023/05/01 13:06:58;;;;;;;26.50;17.90;;;18.60;99.90;;;;;;4971120;28;20229;-60
2023/05/01 13:09:29;;;;;;;23.37;16.17;;;18.60;99.90;;;;;;4975022;28;20192;-60
2023/05/01 13:12:01;;;;;;;28.33;16.63;;;18.70;99.90;;;;;;4974053;28;20530;-60
2023/05/01 13:14:36;;;;;;;26.47;17.20;;;18.70;99.90;;;;;;4973356;28;20227;-60
2023/05/01 13:17:07;;;;;;;23.33;16.60;;;18.70;99.90;;;;;;4950992;28;20214;-67
2023/05/01 13:19:36;;;;;;;24.63;17.43;;;18.70;99.90;;;;;;4972400;28;20787;-60
2023/05/01 13:22:05;;;;;;;26.23;17.33;;;18.50;99.90;;;;;;4971957;28;20215;-60
2023/05/01 13:24:38;;;;;;;25.57;17.63;;;18.40;99.90;;;;;;4971318;28;20235;-60
2023/05/01 13:27:09;;;;;;;27.33;18.03;;;18.40;99.90;;;;;;4968700;28;20198;-60
2023/05/01 13:29:40;;;;;;;25.37;17.67;;;18.40;99.90;;;;;;4973794;28;20310;-60
2023/05/01 13:32:11;;;;;;;25.63;17.47;;;18.40;99.90;;;;;;4971859;28;20219;-61
2023/05/01 13:34:42;;;;;;;22.67;16.87;;;18.50;99.90;;;;;;4969180;28;20924;-60
2023/05/01 13:37:13;;;;;;;22.53;16.43;;;18.60;99.90;;;;;;4963881;28;20235;-60
2023/05/01 13:39:42;;;;;;;23.70;16.13;;;18.80;99.90;;;;;;4968749;28;20795;-60
2023/05/01 13:42:12;;;;;;;21.67;15.60;;;19.10;99.90;;;;;;4953587;28;20206;-61
2023/05/01 13:44:50;;;;;;;23.50;16.00;;;19.20;99.90;;;;;;4972002;28;20266;-61
2023/05/01 13:47:19;;;;;;;24.47;15.50;;;19.30;99.90;;;;;;4973238;28;20255;-60
2023/05/01 13:49:48;;;;;;;21.33;15.43;;;19.20;99.90;;;;;;4967671;28;20223;-60
2023/05/01 13:52:17;;;;;;;20.80;15.40;;;19.30;99.90;;;;;;4968458;28;20302;-60
2023/05/01 13:54:47;;;;;;;16.20;12.13;;;19.30;99.90;;;;;;4972845;28;20231;-60
2023/05/01 13:57:16;;;;;;;12.97;10.57;;;19.20;99.90;;;;;;4971986;28;20220;-58
2023/05/01 13:59:47;;;;;;;14.57;11.53;;;19.40;99.90;;;;;;4967135;28;20199;-58
2023/05/01 14:02:21;;;;;;;16.30;11.47;;;19.40;99.90;;;;;;4961425;28;20697;-61
2023/05/01 14:04:50;;;;;;;17.63;11.70;;;19.20;99.90;;;;;;4971556;28;20309;-60
2023/05/01 14:07:19;;;;;;;15.40;12.03;;;18.90;99.90;;;;;;4974656;28;20219;-60
2023/05/01 14:09:54;;;;;;;17.40;12.10;;;18.80;99.90;;;;;;4972816;28;20286;-60
2023/05/01 14:12:25;;;;;;;17.87;12.43;;;18.60;99.90;;;;;;4967485;28;20191;-61
2023/05/01 14:14:55;;;;;;;18.27;11.50;;;18.50;99.90;;;;;;4959636;28;20706;-60
2023/05/01 14:17:30;;;;;;;20.37;12.10;;;18.50;99.90;;;;;;4964615;28;20228;-60
2023/05/01 14:19:58;;;;;;;14.90;11.93;;;18.60;99.90;;;;;;4961278;28;20277;-60
2023/05/01 14:22:30;;;;;;;15.73;12.00;;;18.60;99.90;;;;;;4960049;28;20236;-60
2023/05/01 14:24:58;;;;;;;16.00;11.67;;;18.80;99.90;;;;;;4961709;28;20278;-60
2023/05/01 14:27:27;;;;;;;15.97;11.60;;;19.00;99.90;;;;;;4969440;28;20192;-60